Time;durP1;ratioP1;P1;durP2;ratioP2;P2;SDS_P1;SDS_P2;PMS_P1;PMS_P2;Temp;Humidity;BMP_temperature;BMP_pressure;BME280_temperature;BME280_humidity;BME280_pressure;Samples;Min_cycle;Max_cycle;Signal;HPM_P1;HPM_P2
2021/11/13 00:01:37;;;;;;;;;;;;;;;;;;5055073;28;19965;-80
2021/11/13 00:04:03;;;;;;;;;;;;;;;;;;5054818;28;19916;-82
2021/11/13 00:06:28;;;;;;;;;;;;;;;;;;5054917;28;20373;-79
2021/11/13 00:08:53;;;;;;;;;;;;;;;;;;5054637;28;19913;-79
2021/11/13 00:11:19;;;;;;;;;;;;;;;;;;5053507;28;19923;-79
2021/11/13 00:13:51;;;;;;;;;;;;;;;;;;5053475;28;19916;-80
2021/11/13 00:16:16;;;;;;;;;;;;;;;;;;5054656;28;19917;-79
2021/11/13 00:18:42;;;;;;;;;;;;;;;;;;5054847;28;19923;-79
2021/11/13 00:21:07;;;;;;;;;;;;;;;;;;5054500;28;19927;-79
2021/11/13 00:23:33;;;;;;;;;;;;;;;;;;5054553;28;19939;-79
2021/11/13 00:25:58;;;;;;;;;;;;;;;;;;5054417;28;19917;-79
2021/11/13 00:28:25;;;;;;;;;;;;;;;;;;5054486;28;19917;-78
2021/11/13 00:30:50;;;;;;;;;;;;;;;;;;5054270;28;19976;-79
2021/11/13 00:33:16;;;;;;;;;;;;;;;;;;5053491;28;20023;-79
2021/11/13 00:35:41;;;;;;;;;;;;;;;;;;5054376;28;19917;-79
2021/11/13 00:38:06;;;;;;;;;;;;;;;;;;5054229;28;20338;-79
2021/11/13 00:40:32;;;;;;;;;;;;;;;;;;5053599;28;20379;-79
2021/11/13 00:42:58;;;;;;;;;;;;;;;;;;5054245;28;20011;-79
2021/11/13 00:45:23;;;;;;;;;;;;;;;;;;5054220;28;20292;-79
2021/11/13 00:47:49;;;;;;;;;;;;;;;;;;5054091;28;19916;-78
2021/11/13 00:50:14;;;;;;;;;;;;;;;;;;5053897;28;20050;-79
2021/11/13 00:52:40;;;;;;;;;;;;;;;;;;5053972;28;19917;-78
2021/11/13 00:55:07;;;;;;;;;;;;;;;;;;5054037;28;19917;-78
2021/11/13 00:57:32;;;;;;;;;;;;;;;;;;5053799;28;20373;-79
2021/11/13 00:59:58;;;;;;;;;;;;;;;;;;5053811;28;19924;-79
2021/11/13 01:02:23;;;;;;;;;;;;;;;;;;5054174;28;19924;-78
2021/11/13 01:04:49;;;;;;;;;;;;;;;;;;5053952;28;20011;-78
2021/11/13 01:07:14;;;;;;;;;;;;;;;;;;5053809;28;19952;-78
2021/11/13 01:09:40;;;;;;;;;;;;;;;;;;5053664;28;20008;-79
2021/11/13 01:12:05;;;;;;;;;;;;;;;;;;5053626;28;20426;-78
2021/11/13 01:14:33;;;;;;;;;;;;;;;;;;5053760;28;19917;-79
2021/11/13 01:16:58;;;;;;;;;;;;;;;;;;5053855;28;20015;-78
2021/11/13 01:19:23;;;;;;;;;;;;;;;;;;5053654;28;19964;-78
2021/11/13 01:21:49;;;;;;;;;;;;;;;;;;5053670;28;20019;-78
2021/11/13 01:24:15;;;;;;;;;;;;;;;;;;5053572;28;19920;-79
2021/11/13 01:26:40;;;;;;;;;;;;;;;;;;5053653;28;19924;-78
2021/11/13 01:29:06;;;;;;;;;;;;;;;;;;5053455;28;20273;-79
2021/11/13 01:31:31;;;;;;;;;;;;;;;;;;5053451;28;19951;-79
2021/11/13 01:33:57;;;;;;;;;;;;;;;;;;5053527;28;19959;-78
2021/11/13 01:36:23;;;;;;;;;;;;;;;;;;5053883;28;19917;-79
2021/11/13 01:38:49;;;;;;;;;;;;;;;;;;5053504;28;19986;-80
2021/11/13 01:41:14;;;;;;;;;;;;;;;;;;5053498;28;20372;-78
2021/11/13 01:43:40;;;;;;;;;;;;;;;;;;5053975;28;19917;-79
2021/11/13 01:46:06;;;;;;;;;;;;;;;;;;5057489;28;19916;-79
2021/11/13 01:48:32;;;;;;;;;;;;;;;;;;5057453;28;19917;-79
2021/11/13 01:50:58;;;;;;;;;;;;;;;;;;5057250;28;19927;-78
2021/11/13 01:53:24;;;;;;;;;;;;;;;;;;5057462;28;19924;-79
2021/11/13 01:55:50;;;;;;;;;;;;;;;;;;5057353;28;19951;-79
2021/11/13 01:58:16;;;;;;;;;;;;;;;;;;5037326;28;19928;-79
2021/11/13 02:00:49;;;;;;;;;;;;;;;;;;5037327;28;20293;-79
2021/11/13 02:03:14;;;;;;;;;;;;;;;;;;5037648;28;20215;-79
2021/11/13 02:05:40;;;;;;;;;;;;;;;;;;5037253;28;19917;-79
2021/11/13 02:08:05;;;;;;;;;;;;;;;;;;5037104;28;19917;-79
2021/11/13 02:10:32;;;;;;;;;;;;;;;;;;5035791;28;19917;-79
2021/11/13 02:12:58;;;;;;;;;;;;;;;;;;5037096;28;19917;-79
2021/11/13 02:15:23;;;;;;;;;;;;;;;;;;5037067;28;19917;-79
2021/11/13 02:17:49;;;;;;;;;;;;;;;;;;5037116;28;19917;-79
2021/11/13 02:20:15;;;;;;;;;;;;;;;;;;5036939;28;19921;-79
2021/11/13 02:22:40;;;;;;;;;;;;;;;;;;5037125;28;20008;-79
2021/11/13 02:25:06;;;;;;;;;;;;;;;;;;5036863;28;20369;-78
2021/11/13 02:27:31;;;;;;;;;;;;;;;;;;5036858;28;19964;-79
2021/11/13 02:29:57;;;;;;;;;;;;;;;;;;5036595;28;20421;-78
2021/11/13 02:32:22;;;;;;;;;;;;;;;;;;5036623;28;19924;-79
2021/11/13 02:34:48;;;;;;;;;;;;;;;;;;5036684;28;20028;-78
2021/11/13 02:37:13;;;;;;;;;;;;;;;;;;5036590;28;19917;-78
2021/11/13 02:39:39;;;;;;;;;;;;;;;;;;5036602;28;19963;-78
2021/11/13 02:42:04;;;;;;;;;;;;;;;;;;5036564;28;20322;-78
2021/11/13 02:44:31;;;;;;;;;;;;;;;;;;5036674;28;19917;-79
2021/11/13 02:46:57;;;;;;;;;;;;;;;;;;5036455;28;19963;-79
2021/11/13 02:49:23;;;;;;;;;;;;;;;;;;5036317;28;19921;-79
2021/11/13 02:51:48;;;;;;;;;;;;;;;;;;5036256;28;19940;-78
2021/11/13 02:54:14;;;;;;;;;;;;;;;;;;5036257;28;19917;-78
2021/11/13 02:56:39;;;;;;;;;;;;;;;;;;5042084;28;19964;-81
2021/11/13 02:59:05;;;;;;;;;;;;;;;;;;5055176;28;19938;-79
2021/11/13 03:01:30;;;;;;;;;;;;;;;;;;5056206;28;19916;-79
2021/11/13 03:03:56;;;;;;;;;;;;;;;;;;5056274;28;19943;-78
2021/11/13 03:06:22;;;;;;;;;;;;;;;;;;5056020;28;19917;-79
2021/11/13 03:08:50;;;;;;;;;;;;;;;;;;5056029;28;19920;-78
2021/11/13 03:11:16;;;;;;;;;;;;;;;;;;5054489;28;19917;-79
2021/11/13 03:13:42;;;;;;;;;;;;;;;;;;5055933;28;19958;-79
2021/11/13 03:16:09;;;;;;;;;;;;;;;;;;5055781;28;19971;-79
2021/11/13 03:18:34;;;;;;;;;;;;;;;;;;5056048;28;19916;-79
2021/11/13 03:21:05;;;;;;;;;;;;;;;;;;5054513;28;20377;-78
2021/11/13 03:23:32;;;;;;;;;;;;;;;;;;5055951;28;19952;-79
2021/11/13 03:26:01;;;;;;;;;;;;;;;;;;5054277;28;19921;-78
2021/11/13 03:28:27;;;;;;;;;;;;;;;;;;5055583;28;19924;-78
2021/11/13 03:30:53;;;;;;;;;;;;;;;;;;5055693;28;20288;-78
2021/11/13 03:33:19;;;;;;;;;;;;;;;;;;5055471;28;19916;-79
2021/11/13 03:35:44;;;;;;;;;;;;;;;;;;5055523;28;20460;-79
2021/11/13 03:38:14;;;;;;;;;;;;;;;;;;5054127;28;19921;-79
2021/11/13 03:40:42;;;;;;;;;;;;;;;;;;5054155;28;19939;-78
2021/11/13 03:43:08;;;;;;;;;;;;;;;;;;5055361;28;19917;-78
2021/11/13 03:45:33;;;;;;;;;;;;;;;;;;5055305;28;19923;-78
2021/11/13 03:47:59;;;;;;;;;;;;;;;;;;5055206;28;19923;-78
2021/11/13 03:50:25;;;;;;;;;;;;;;;;;;5055081;28;19971;-79
2021/11/13 03:52:51;;;;;;;;;;;;;;;;;;5055049;28;19940;-78
2021/11/13 03:55:16;;;;;;;;;;;;;;;;;;5055151;28;20300;-78
2021/11/13 03:57:42;;;;;;;;;;;;;;;;;;5054827;28;19921;-78
2021/11/13 04:00:08;;;;;;;;;;;;;;;;;;5054995;28;19928;-78
2021/11/13 04:02:33;;;;;;;;;;;;;;;;;;5055144;28;19920;-78
2021/11/13 04:04:59;;;;;;;;;;;;;;;;;;5055054;28;20375;-78
2021/11/13 04:07:24;;;;;;;;;;;;;;;;;;5054964;28;20009;-77
2021/11/13 04:09:50;;;;;;;;;;;;;;;;;;5054657;28;20076;-78
2021/11/13 04:12:15;;;;;;;;;;;;;;;;;;5054678;28;19924;-79
2021/11/13 04:14:41;;;;;;;;;;;;;;;;;;5054808;28;19920;-78
2021/11/13 04:17:07;;;;;;;;;;;;;;;;;;5054973;28;20382;-78
2021/11/13 04:19:32;;;;;;;;;;;;;;;;;;5054677;28;19956;-78
2021/11/13 04:21:58;;;;;;;;;;;;;;;;;;5054424;28;19924;-79
2021/11/13 04:24:23;;;;;;;;;;;;;;;;;;5054505;28;19962;-78
2021/11/13 04:26:49;;;;;;;;;;;;;;;;;;5053269;28;19917;-78
2021/11/13 04:29:14;;;;;;;;;;;;;;;;;;5054561;28;19917;-78
2021/11/13 04:31:40;;;;;;;;;;;;;;;;;;5054194;28;19917;-79
2021/11/13 04:34:08;;;;;;;;;;;;;;;;;;5054305;28;20391;-78
2021/11/13 04:36:38;;;;;;;;;;;;;;;;;;5054303;28;19917;-78
2021/11/13 04:39:07;;;;;;;;;;;;;;;;;;5054295;28;19917;-79
2021/11/13 04:41:33;;;;;;;;;;;;;;;;;;5054444;28;20383;-78
2021/11/13 04:43:58;;;;;;;;;;;;;;;;;;5054127;28;20000;-79
2021/11/13 04:46:24;;;;;;;;;;;;;;;;;;5054134;28;19952;-79
2021/11/13 04:48:49;;;;;;;;;;;;;;;;;;5054106;28;20269;-80
2021/11/13 04:51:15;;;;;;;;;;;;;;;;;;5053859;28;20380;-79
2021/11/13 04:53:40;;;;;;;;;;;;;;;;;;5054030;28;20264;-79
2021/11/13 04:56:06;;;;;;;;;;;;;;;;;;5053719;28;19916;-79
2021/11/13 04:58:32;;;;;;;;;;;;;;;;;;5054254;28;19921;-79
2021/11/13 05:00:57;;;;;;;;;;;;;;;;;;5053938;28;20301;-78
2021/11/13 05:03:22;;;;;;;;;;;;;;;;;;5053932;28;19923;-79
2021/11/13 05:05:48;;;;;;;;;;;;;;;;;;5053921;28;19924;-79
2021/11/13 05:08:13;;;;;;;;;;;;;;;;;;5053768;28;19959;-79
2021/11/13 05:10:39;;;;;;;;;;;;;;;;;;5053695;28;19924;-79
2021/11/13 05:13:04;;;;;;;;;;;;;;;;;;5053721;28;19916;-79
2021/11/13 05:15:30;;;;;;;;;;;;;;;;;;5053866;28;19917;-79
2021/11/13 05:17:55;;;;;;;;;;;;;;;;;;5053552;28;19913;-79
2021/11/13 05:20:20;;;;;;;;;;;;;;;;;;5053265;28;19924;-79
2021/11/13 05:22:47;;;;;;;;;;;;;;;;;;5053776;28;19912;-79
2021/11/13 05:25:13;;;;;;;;;;;;;;;;;;5053596;28;19959;-78
2021/11/13 05:27:39;;;;;;;;;;;;;;;;;;5052688;28;20424;-78
2021/11/13 05:30:05;;;;;;;;;;;;;;;;;;5053280;28;20035;-79
2021/11/13 05:32:31;;;;;;;;;;;;;;;;;;5053653;28;20296;-79
2021/11/13 05:34:56;;;;;;;;;;;;;;;;;;5053528;28;19917;-81
2021/11/13 05:37:22;;;;;;;;;;;;;;;;;;5053518;28;19924;-80
2021/11/13 05:39:47;;;;;;;;;;;;;;;;;;5053472;28;19944;-79
2021/11/13 05:42:15;;;;;;;;;;;;;;;;;;5053429;28;19929;-79
2021/11/13 05:44:40;;;;;;;;;;;;;;;;;;5053492;28;19956;-79
2021/11/13 05:47:05;;;;;;;;;;;;;;;;;;5053429;28;20430;-79
2021/11/13 05:49:31;;;;;;;;;;;;;;;;;;5053340;28;19917;-79
2021/11/13 05:51:56;;;;;;;;;;;;;;;;;;5053056;28;19917;-81
2021/11/13 05:54:22;;;;;;;;;;;;;;;;;;5052113;28;19924;-81
2021/11/13 05:56:47;;;;;;;;;;;;;;;;;;5051808;28;19947;-80
2021/11/13 05:59:13;;;;;;;;;;;;;;;;;;5053412;28;20024;-81
2021/11/13 06:01:38;;;;;;;;;;;;;;;;;;5053302;28;19917;-79
2021/11/13 06:04:04;;;;;;;;;;;;;;;;;;5053134;28;19916;-80
2021/11/13 06:06:29;;;;;;;;;;;;;;;;;;5053230;28;19967;-79
2021/11/13 06:08:55;;;;;;;;;;;;;;;;;;5053273;28;19952;-80
2021/11/13 06:11:20;;;;;;;;;;;;;;;;;;5053036;28;19917;-79
2021/11/13 06:13:46;;;;;;;;;;;;;;;;;;5053171;28;19917;-80
2021/11/13 06:16:11;;;;;;;;;;;;;;;;;;5053086;28;19921;-79
2021/11/13 06:18:37;;;;;;;;;;;;;;;;;;5053200;28;19917;-79
2021/11/13 06:21:06;;;;;;;;;;;;;;;;;;5053258;28;19917;-80
2021/11/13 06:23:32;;;;;;;;;;;;;;;;;;5053380;28;19916;-81
2021/11/13 06:25:58;;;;;;;;;;;;;;;;;;5053028;28;19940;-80
2021/11/13 06:28:24;;;;;;;;;;;;;;;;;;5053027;28;19917;-79
2021/11/13 06:30:49;;;;;;;;;;;;;;;;;;5053676;28;20327;-79
2021/11/13 06:33:15;;;;;;;;;;;;;;;;;;5056808;28;19917;-79
2021/11/13 06:35:40;;;;;;;;;;;;;;;;;;5056692;28;19917;-79
2021/11/13 06:38:05;;;;;;;;;;;;;;;;;;5055277;28;19917;-80
2021/11/13 06:40:32;;;;;;;;;;;;;;;;;;5056836;28;19917;-80
2021/11/13 06:42:58;;;;;;;;;;;;;;;;;;5056401;28;20393;-80
2021/11/13 06:45:23;;;;;;;;;;;;;;;;;;5056556;28;19912;-82
2021/11/13 06:47:49;;;;;;;;;;;;;;;;;;5056395;28;20351;-80
2021/11/13 06:50:14;;;;;;;;;;;;;;;;;;5056199;28;19923;-81
2021/11/13 06:52:40;;;;;;;;;;;;;;;;;;5054959;28;19917;-81
2021/11/13 06:55:06;;;;;;;;;;;;;;;;;;5056426;28;19916;-82
2021/11/13 06:57:32;;;;;;;;;;;;;;;;;;5056005;28;19928;-79
2021/11/13 06:59:57;;;;;;;;;;;;;;;;;;5056056;28;19927;-79
2021/11/13 07:02:22;;;;;;;;;;;;;;;;;;5056106;28;20019;-78
2021/11/13 07:04:48;;;;;;;;;;;;;;;;;;5056115;28;20323;-78
2021/11/13 07:07:13;;;;;;;;;;;;;;;;;;5054846;28;20277;-79
2021/11/13 07:09:39;;;;;;;;;;;;;;;;;;5056187;28;19913;-80
2021/11/13 07:12:05;;;;;;;;;;;;;;;;;;5055417;28;20014;-80
2021/11/13 07:14:31;;;;;;;;;;;;;;;;;;5055912;28;19916;-80
2021/11/13 07:16:56;;;;;;;;;;;;;;;;;;5055934;28;20349;-78
2021/11/13 07:19:21;;;;;;;;;;;;;;;;;;5055925;28;20278;-81
2021/11/13 07:21:47;;;;;;;;;;;;;;;;;;5055968;28;20396;-80
2021/11/13 07:24:13;;;;;;;;;;;;;;;;;;5055652;28;19921;-80
2021/11/13 07:26:41;;;;;;;;;;;;;;;;;;5055792;28;20050;-79
2021/11/13 07:29:09;;;;;;;;;;;;;;;;;;5055843;28;19912;-79
2021/11/13 07:31:35;;;;;;;;;;;;;;;;;;5055339;28;19917;-81
2021/11/13 07:34:01;;;;;;;;;;;;;;;;;;5054204;28;19977;-79
2021/11/13 07:36:26;;;;;;;;;;;;;;;;;;5055512;28;19923;-82
2021/11/13 07:38:52;;;;;;;;;;;;;;;;;;5055538;28;19927;-80
2021/11/13 07:41:19;;;;;;;;;;;;;;;;;;5055188;28;19920;-80
2021/11/13 07:43:45;;;;;;;;;;;;;;;;;;5054129;28;19916;-80
2021/11/13 07:46:10;;;;;;;;;;;;;;;;;;5055321;28;19917;-81
2021/11/13 07:48:36;;;;;;;;;;;;;;;;;;5055334;28;20426;-82
2021/11/13 07:51:03;;;;;;;;;;;;;;;;;;5055406;28;19958;-82
2021/11/13 07:53:30;;;;;;;;;;;;;;;;;;5055215;28;19916;-81
2021/11/13 07:55:55;;;;;;;;;;;;;;;;;;5054864;28;19916;-82
2021/11/13 07:58:20;;;;;;;;;;;;;;;;;;5055078;28;19917;-82
2021/11/13 08:00:47;;;;;;;;;;;;;;;;;;5055400;28;20345;-81
2021/11/13 08:03:12;;;;;;;;;;;;;;;;;;5054934;28;20380;-83
2021/11/13 08:05:38;;;;;;;;;;;;;;;;;;5054955;28;19920;-82
2021/11/13 08:08:03;;;;;;;;;;;;;;;;;;5054716;28;19951;-80
2021/11/13 08:10:32;;;;;;;;;;;;;;;;;;5054976;28;19924;-83
2021/11/13 08:12:58;;;;;;;;;;;;;;;;;;5055123;28;20002;-82
2021/11/13 08:15:23;;;;;;;;;;;;;;;;;;5054651;28;20370;-83
2021/11/13 08:17:49;;;;;;;;;;;;;;;;;;5054852;28;19919;-82
2021/11/13 08:20:15;;;;;;;;;;;;;;;;;;5054621;28;19944;-84
2021/11/13 08:22:41;;;;;;;;;;;;;;;;;;5054853;28;19917;-83
2021/11/13 08:25:08;;;;;;;;;;;;;;;;;;5054569;28;20280;-83
2021/11/13 08:27:34;;;;;;;;;;;;;;;;;;5054475;28;19923;-82
2021/11/13 08:29:59;;;;;;;;;;;;;;;;;;5054512;28;19913;-81
2021/11/13 08:32:25;;;;;;;;;;;;;;;;;;5054323;28;20383;-82
2021/11/13 08:34:50;;;;;;;;;;;;;;;;;;5054507;28;20448;-81
2021/11/13 08:37:16;;;;;;;;;;;;;;;;;;5054292;28;19924;-83
2021/11/13 08:39:41;;;;;;;;;;;;;;;;;;5048613;28;19921;-85
2021/11/13 08:42:16;;;;;;;;;;;;;;;;;;5024698;28;20020;-87
2021/11/13 08:44:43;;;;;;;;;;;;;;;;;;5020216;28;20019;-88
2021/11/13 08:47:12;;;;;;;;;;;;;;;;;;5019623;28;20357;-84
2021/11/13 08:49:42;;;;;;;;;;;;;;;;;;5016928;28;20016;-83
2021/11/13 08:54:40;;;;;;;;;;;;;;;;;;5091510;28;19924;-86
2021/11/13 08:57:15;;;;;;;;;;;;;;;;;;5094499;28;19959;-88
2021/11/13 09:00:02;;;;;;;;;;;;;;;;;;5091558;28;19946;-85
2021/11/13 09:02:28;;;;;;;;;;;;;;;;;;5094640;28;19916;-86
2021/11/13 09:05:12;;;;;;;;;;;;;;;;;;5092621;28;19924;-85
2021/11/13 09:07:38;;;;;;;;;;;;;;;;;;5081588;28;19924;-84
2021/11/13 09:10:05;;;;;;;;;;;;;;;;;;5092752;28;19955;-86
2021/11/13 09:12:31;;;;;;;;;;;;;;;;;;5093017;28;19931;-84
2021/11/13 09:15:08;;;;;;;;;;;;;;;;;;5126743;27;19985;-85
2021/11/13 09:17:39;;;;;;;;;;;;;;;;;;5092514;28;19966;-85
2021/11/13 09:20:05;;;;;;;;;;;;;;;;;;5091577;28;19920;-81
2021/11/13 09:22:31;;;;;;;;;;;;;;;;;;5087638;28;19966;-86
2021/11/13 09:24:59;;;;;;;;;;;;;;;;;;5087593;28;20323;-81
2021/11/13 09:27:30;;;;;;;;;;;;;;;;;;5090983;28;20274;-86
2021/11/13 09:29:59;;;;;;;;;;;;;;;;;;5092337;28;19917;-88
2021/11/13 09:32:32;;;;;;;;;;;;;;;;;;5090697;28;19924;-80
2021/11/13 09:35:01;;;;;;;;;;;;;;;;;;5093719;28;19916;-85
2021/11/13 09:37:29;;;;;;;;;;;;;;;;;;5092155;28;20024;-86
2021/11/13 09:39:55;;;;;;;;;;;;;;;;;;5091476;28;19920;-84
2021/11/13 09:42:22;;;;;;;;;;;;;;;;;;5092420;28;20264;-85
2021/11/13 09:44:48;;;;;;;;;;;;;;;;;;5092185;28;20333;-79
2021/11/13 09:47:13;;;;;;;;;;;;;;;;;;5083543;28;19916;-83
2021/11/13 09:49:43;;;;;;;;;;;;;;;;;;5126787;28;19923;-81
2021/11/13 09:52:10;;;;;;;;;;;;;;;;;;5093396;28;19917;-83
2021/11/13 09:54:35;;;;;;;;;;;;;;;;;;5093535;28;19927;-79
2021/11/13 09:57:04;;;;;;;;;;;;;;;;;;5093680;28;20318;-78
2021/11/13 09:59:30;;;;;;;;;;;;;;;;;;5094042;28;19916;-81
2021/11/13 10:01:55;;;;;;;;;;;;;;;;;;5093610;28;20369;-86
2021/11/13 10:04:23;;;;;;;;;;;;;;;;;;5092528;28;19926;-83
2021/11/13 10:06:49;;;;;;;;;;;;;;;;;;5097512;28;19948;-84
2021/11/13 10:09:14;;;;;;;;;;;;;;;;;;5097507;28;19970;-81
2021/11/13 10:11:41;;;;;;;;;;;;;;;;;;5096094;28;19920;-81
2021/11/13 10:32:23;;;;;;;;;;;;;;;;;;5096767;28;19917;-83
2021/11/13 10:34:51;;;;;;;;;;;;;;;;;;5097104;28;20018;-83
2021/11/13 10:37:30;;;;;;;;;;;;;;;;;;5097092;28;19916;-86
2021/11/13 10:40:00;;;;;;;;;;;;;;;;;;5096863;28;19916;-83
2021/11/13 10:42:28;;;;;;;;;;;;;;;;;;5096912;28;19923;-84
2021/11/13 10:44:59;;;;;;;;;;;;;;;;;;5096913;28;19916;-82
2021/11/13 10:47:32;;;;;;;;;;;;;;;;;;5096727;28;19955;-81
2021/11/13 10:50:20;;;;;;;;;;;;;;;;;;5096778;28;20364;-81
2021/11/13 10:53:02;;;;;;;;;;;;;;;;;;5096133;28;19920;-81
2021/11/13 10:55:31;;;;;;;;;;;;;;;;;;5096558;28;19916;-82
2021/11/13 10:58:17;;;;;;;;;;;;;;;;;;5096425;28;20003;-82
2021/11/13 11:00:44;;;;;;;;;;;;;;;;;;5096604;28;20010;-83
2021/11/13 11:05:50;;;;;;;;;;;;;;;;;;5644093;22;19932;-85
2021/11/13 11:08:34;;;;;;;;;;;;;;;;;;5055844;28;19964;-86
2021/11/13 11:11:07;;;;;;;;;;;;;;;;;;5055839;28;19966;-83
2021/11/13 11:13:55;;;;;;;;;;;;;;;;;;5055897;28;20368;-80
2021/11/13 11:16:22;;;;;;;;;;;;;;;;;;5035484;28;19921;-83
2021/11/13 11:18:55;;;;;;;;;;;;;;;;;;5049033;28;19921;-80
2021/11/13 11:21:40;;;;;;;;;;;;;;;;;;5053925;28;20015;-82
2021/11/13 11:24:09;;;;;;;;;;;;;;;;;;5037668;28;19917;-83
2021/11/13 11:26:35;;;;;;;;;;;;;;;;;;5054634;28;19961;-82
2021/11/13 11:29:01;;;;;;;;;;;;;;;;;;5053814;28;19920;-82
2021/11/13 11:31:46;;;;;;;;;;;;;;;;;;5054187;28;20027;-82
2021/11/13 11:34:38;;;;;;;;;;;;;;;;;;5053968;28;19952;-82
2021/11/13 11:37:05;;;;;;;;;;;;;;;;;;5051113;28;19952;-81
2021/11/13 11:39:31;;;;;;;;;;;;;;;;;;5054493;28;19978;-82
2021/11/13 11:41:57;;;;;;;;;;;;;;;;;;5054965;28;20388;-82
2021/11/13 11:44:22;;;;;;;;;;;;;;;;;;5055455;28;19916;-81
2021/11/13 11:46:48;;;;;;;;;;;;;;;;;;5055467;28;19971;-81
2021/11/13 11:49:14;;;;;;;;;;;;;;;;;;5055274;28;20368;-84
2021/11/13 11:51:40;;;;;;;;;;;;;;;;;;5055226;28;19967;-82
2021/11/13 11:54:06;;;;;;;;;;;;;;;;;;5055166;28;19917;-82
2021/11/13 11:56:32;;;;;;;;;;;;;;;;;;5055209;28;19963;-83
2021/11/13 11:58:59;;;;;;;;;;;;;;;;;;5055146;28;19917;-81
2021/11/13 12:01:29;;;;;;;;;;;;;;;;;;5055030;28;19970;-82
2021/11/13 12:04:15;;;;;;;;;;;;;;;;;;5055076;28;19916;-83
2021/11/13 12:06:48;;;;;;;;;;;;;;;;;;5054774;28;20042;-82
2021/11/13 12:09:13;;;;;;;;;;;;;;;;;;5055106;28;20296;-82
2021/11/13 12:11:39;;;;;;;;;;;;;;;;;;5036690;28;19913;-82
2021/11/13 12:14:23;;;;;;;;;;;;;;;;;;5054706;28;20351;-80
2021/11/13 12:16:50;;;;;;;;;;;;;;;;;;5037618;28;19912;-82
2021/11/13 12:19:19;;;;;;;;;;;;;;;;;;5055073;28;19917;-81
2021/11/13 12:21:52;;;;;;;;;;;;;;;;;;5036784;28;20284;-82
2021/11/13 12:24:18;;;;;;;;;;;;;;;;;;5054644;28;20254;-81
2021/11/13 12:26:57;;;;;;;;;;;;;;;;;;5054592;28;19913;-81
2021/11/13 12:29:23;;;;;;;;;;;;;;;;;;5053541;28;19917;-79
2021/11/13 12:31:52;;;;;;;;;;;;;;;;;;5054288;28;19940;-80
2021/11/13 12:34:20;;;;;;;;;;;;;;;;;;5054407;28;19952;-78
2021/11/13 12:36:48;;;;;;;;;;;;;;;;;;5036552;28;20435;-81
2021/11/13 12:39:19;;;;;;;;;;;;;;;;;;5054595;28;20291;-80
2021/11/13 12:41:46;;;;;;;;;;;;;;;;;;5054320;28;20004;-79
2021/11/13 12:44:20;;;;;;;;;;;;;;;;;;5054143;28;19956;-79
2021/11/13 12:46:53;;;;;;;;;;;;;;;;;;5054203;28;19923;-81
2021/11/13 12:49:19;;;;;;;;;;;;;;;;;;5054202;28;19916;-82
2021/11/13 12:51:50;;;;;;;;;;;;;;;;;;5054151;28;19916;-79
2021/11/13 12:54:16;;;;;;;;;;;;;;;;;;5053931;28;19927;-80
2021/11/13 12:56:43;;;;;;;;;;;;;;;;;;5036222;28;20011;-80
2021/11/13 12:59:13;;;;;;;;;;;;;;;;;;5054045;28;19917;-80
2021/11/13 13:01:46;;;;;;;;;;;;;;;;;;5054086;28;19921;-80
2021/11/13 13:04:11;;;;;;;;;;;;;;;;;;5053900;28;19921;-82
2021/11/13 13:06:44;;;;;;;;;;;;;;;;;;5053789;28;19927;-81
2021/11/13 13:09:09;;;;;;;;;;;;;;;;;;5053916;28;19960;-80
2021/11/13 13:11:44;;;;;;;;;;;;;;;;;;5053623;28;19944;-83
2021/11/13 13:14:10;;;;;;;;;;;;;;;;;;5053773;28;19921;-82
2021/11/13 13:16:35;;;;;;;;;;;;;;;;;;5053798;28;20387;-82
2021/11/13 13:19:00;;;;;;;;;;;;;;;;;;5053888;28;19974;-80
2021/11/13 13:21:26;;;;;;;;;;;;;;;;;;5053695;28;19958;-80
2021/11/13 13:23:51;;;;;;;;;;;;;;;;;;5053671;28;19917;-80
2021/11/13 13:26:18;;;;;;;;;;;;;;;;;;5053556;28;20395;-80
2021/11/13 13:28:43;;;;;;;;;;;;;;;;;;5053699;28;19920;-85
2021/11/13 13:31:10;;;;;;;;;;;;;;;;;;5035673;28;19917;-79
2021/11/13 13:33:36;;;;;;;;;;;;;;;;;;5053562;28;19920;-80
2021/11/13 13:36:02;;;;;;;;;;;;;;;;;;5053460;28;19917;-82
2021/11/13 13:38:28;;;;;;;;;;;;;;;;;;5053633;28;19923;-85
2021/11/13 13:40:58;;;;;;;;;;;;;;;;;;5056313;28;19924;-81
2021/11/13 13:43:29;;;;;;;;;;;;;;;;;;5057658;28;19917;-81
2021/11/13 13:45:58;;;;;;;;;;;;;;;;;;5057544;28;19917;-81
2021/11/13 13:48:25;;;;;;;;;;;;;;;;;;5039700;28;19921;-79
2021/11/13 13:50:51;;;;;;;;;;;;;;;;;;5057539;28;19921;-82
2021/11/13 13:53:17;;;;;;;;;;;;;;;;;;5039650;28;19916;-82
2021/11/13 13:55:43;;;;;;;;;;;;;;;;;;5057470;28;19916;-79
2021/11/13 13:58:11;;;;;;;;;;;;;;;;;;5057355;28;19917;-80
2021/11/13 14:00:37;;;;;;;;;;;;;;;;;;5057320;28;19951;-80
2021/11/13 14:03:03;;;;;;;;;;;;;;;;;;5057308;28;19959;-79
2021/11/13 14:05:31;;;;;;;;;;;;;;;;;;5057087;28;19928;-79
2021/11/13 14:08:03;;;;;;;;;;;;;;;;;;5057414;28;20296;-80
2021/11/13 14:10:29;;;;;;;;;;;;;;;;;;5057329;28;19991;-83
2021/11/13 14:12:55;;;;;;;;;;;;;;;;;;5039092;28;20055;-83
2021/11/13 14:15:22;;;;;;;;;;;;;;;;;;5057234;28;20050;-83
2021/11/13 14:17:54;;;;;;;;;;;;;;;;;;5057397;28;19917;-82
2021/11/13 14:20:20;;;;;;;;;;;;;;;;;;5057029;28;19921;-84
2021/11/13 14:23:00;;;;;;;;;;;;;;;;;;5056922;28;19917;-84
2021/11/13 14:25:27;;;;;;;;;;;;;;;;;;5057143;28;20054;-83
2021/11/13 14:27:52;;;;;;;;;;;;;;;;;;5056899;28;19923;-83
2021/11/13 14:30:18;;;;;;;;;;;;;;;;;;5056763;28;20015;-84
2021/11/13 14:32:57;;;;;;;;;;;;;;;;;;5056591;28;19917;-88
2021/11/13 14:35:23;;;;;;;;;;;;;;;;;;5056779;28;19917;-85
2021/11/13 14:37:49;;;;;;;;;;;;;;;;;;5056728;28;19921;-84
2021/11/13 14:40:16;;;;;;;;;;;;;;;;;;5061144;28;19925;-80
2021/11/13 14:42:42;;;;;;;;;;;;;;;;;;5059491;28;19927;-81
2021/11/13 14:45:08;;;;;;;;;;;;;;;;;;5054827;28;20027;-81
2021/11/13 14:47:40;;;;;;;;;;;;;;;;;;5053121;28;19927;-83
2021/11/13 14:50:15;;;;;;;;;;;;;;;;;;5056083;28;20007;-82
2021/11/13 14:52:47;;;;;;;;;;;;;;;;;;5052704;28;19916;-84
2021/11/13 14:55:18;;;;;;;;;;;;;;;;;;5056312;28;19952;-82
2021/11/13 14:57:48;;;;;;;;;;;;;;;;;;5056447;28;20011;-82
2021/11/13 15:00:25;;;;;;;;;;;;;;;;;;5056143;28;19920;-81
2021/11/13 15:03:06;;;;;;;;;;;;;;;;;;5056189;28;19921;-82
2021/11/13 15:05:31;;;;;;;;;;;;;;;;;;5056084;28;19950;-83
2021/11/13 15:07:57;;;;;;;;;;;;;;;;;;5038087;28;20011;-84
2021/11/13 15:10:22;;;;;;;;;;;;;;;;;;5038495;28;19928;-83
2021/11/13 15:12:48;;;;;;;;;;;;;;;;;;5056178;28;19924;-83
2021/11/13 15:15:13;;;;;;;;;;;;;;;;;;5056262;28;19917;-84
2021/11/13 15:17:43;;;;;;;;;;;;;;;;;;5056151;28;20378;-86
2021/11/13 15:20:18;;;;;;;;;;;;;;;;;;5071912;28;20011;-84
2021/11/13 15:22:44;;;;;;;;;;;;;;;;;;5056052;28;19916;-83
2021/11/13 15:25:10;;;;;;;;;;;;;;;;;;5071312;28;19917;-84
2021/11/13 15:27:36;;;;;;;;;;;;;;;;;;5329925;22;20008;-83
2021/11/13 15:30:03;;;;;;;;;;;;;;;;;;5037992;28;20283;-86
2021/11/13 15:32:32;;;;;;;;;;;;;;;;;;5055700;28;19963;-83
2021/11/13 15:35:06;;;;;;;;;;;;;;;;;;5055754;28;19923;-83
2021/11/13 15:37:34;;;;;;;;;;;;;;;;;;5055768;28;19917;-82
2021/11/13 15:40:02;;;;;;;;;;;;;;;;;;5055759;28;20377;-83
2021/11/13 15:42:31;;;;;;;;;;;;;;;;;;5055665;28;19949;-83
2021/11/13 15:44:58;;;;;;;;;;;;;;;;;;5055630;28;19924;-85
2021/11/13 15:47:24;;;;;;;;;;;;;;;;;;5055403;28;19991;-83
2021/11/13 15:50:11;;;;;;;;;;;;;;;;;;5055545;28;19939;-83
2021/11/13 15:52:38;;;;;;;;;;;;;;;;;;5055279;28;19963;-82
2021/11/13 15:55:04;;;;;;;;;;;;;;;;;;5055390;28;19917;-85
2021/11/13 15:57:30;;;;;;;;;;;;;;;;;;5055336;28;19924;-82
2021/11/13 15:59:55;;;;;;;;;;;;;;;;;;5037333;28;19917;-86
2021/11/13 16:02:21;;;;;;;;;;;;;;;;;;5054987;28;19924;-81
2021/11/13 16:04:46;;;;;;;;;;;;;;;;;;5055175;28;20027;-82
2021/11/13 16:07:12;;;;;;;;;;;;;;;;;;5055101;28;20042;-82
2021/11/13 16:09:37;;;;;;;;;;;;;;;;;;5055036;28;19962;-82
2021/11/13 16:12:03;;;;;;;;;;;;;;;;;;5037012;28;19916;-82
2021/11/13 16:14:29;;;;;;;;;;;;;;;;;;5053774;28;20377;-82
2021/11/13 16:16:54;;;;;;;;;;;;;;;;;;5054450;28;19922;-81
2021/11/13 16:19:20;;;;;;;;;;;;;;;;;;5054406;28;19996;-80
2021/11/13 16:21:45;;;;;;;;;;;;;;;;;;5054753;28;20369;-81
2021/11/13 16:24:11;;;;;;;;;;;;;;;;;;5054336;28;19920;-83
2021/11/13 16:26:36;;;;;;;;;;;;;;;;;;5054250;28;19917;-85
2021/11/13 16:29:05;;;;;;;;;;;;;;;;;;5054332;28;20359;-84
2021/11/13 16:31:30;;;;;;;;;;;;;;;;;;5054727;28;19916;-82
2021/11/13 16:33:56;;;;;;;;;;;;;;;;;;5054731;28;19943;-85
2021/11/13 16:36:21;;;;;;;;;;;;;;;;;;5054493;28;19923;-86
2021/11/13 16:38:47;;;;;;;;;;;;;;;;;;5054539;28;19962;-84
2021/11/13 16:41:14;;;;;;;;;;;;;;;;;;5054524;28;19916;-85
2021/11/13 16:43:44;;;;;;;;;;;;;;;;;;5037125;28;20325;-84
2021/11/13 16:46:12;;;;;;;;;;;;;;;;;;5054476;28;20023;-84
2021/11/13 16:48:41;;;;;;;;;;;;;;;;;;5054328;28;19924;-87
2021/11/13 16:51:08;;;;;;;;;;;;;;;;;;5036564;28;19924;-85
2021/11/13 16:53:34;;;;;;;;;;;;;;;;;;5053535;28;19921;-88
2021/11/13 16:56:07;;;;;;;;;;;;;;;;;;5035751;28;19916;-84
2021/11/13 16:58:32;;;;;;;;;;;;;;;;;;5051715;28;20404;-87
2021/11/13 17:00:58;;;;;;;;;;;;;;;;;;5054274;28;19916;-83
2021/11/13 17:03:25;;;;;;;;;;;;;;;;;;5053986;28;19980;-79
2021/11/13 17:05:52;;;;;;;;;;;;;;;;;;5054018;28;19960;-83
2021/11/13 17:08:17;;;;;;;;;;;;;;;;;;5036015;28;19921;-83
2021/11/13 17:10:43;;;;;;;;;;;;;;;;;;5054266;28;20295;-83